Miramar Marine Corps Air Station
KNKX : rendu visible

Aérodrome :











RETROUVEZ-NOUS SUR...

 
LOGIN :

S'inscrire | Disclaimer

   EN    FR    IT 

 









Légende :    VFR   VFR Marginal   IFR   IFR Intensif   IFR Très Intensif
Visi : 
Plafond : 
>= 8 km
>= 3000ft
5 à 8 km
1000 à 3000 ft
1500m à 5 km
500 à 1000 ft
800 à 1500m
200 à 500 ft
< 800m
< 200 ft
Symboles :   Orages  Brouillard  Fortes neiges  Fortes précipitations  Vent > 20 kt






- Altitude de l'aérodrome : 477 ft


KNKX - Miramar Marine Corps Air Station

DERNIER METAR :
  • 170855Z 08005KT 8SM CLR 13/09 A2997 RMK AO2 SLP143 T01280094 58004 $

METARs EXPIRÉS :
  • 170755Z 10003KT 7SM CLR 13/11 A2997 RMK AO2 SLP145 T01330111 402610100 $
  • 170655Z 01006KT 7SM CLR 14/12 A2998 RMK AO2 SLP148 T01440117 $

TAF TAF KNKX
Valide du 17 à 03h jusqu'au 18 à 03h UTC


1703/1803 VRB05KT 9999 SKC QNH2994INS
BECMG 1719/1721 31009KT 9999 SKC QNH2990INS T13/1715Z T33/1721Z



MET'MAP, la Météo Aéronautique d'un coup d'oeil ! - Copyright ORBIFLY Décembre 2007 - Disclaimer

ORBIFLY MET'MAP TEAM :

Programmation & Développement : Alexandra Zaïnal
Conception & Développement : Baudouin d'Aumeries
Co-Programmation & Développement : Marc-Olivier Méhu
Soutien technique & logistique : Manuel Goepfert

Contact : metmap@orbifly.com




SOURCES & CREDITS :

   NOAA       Earth
Advisory